Time;durP1;ratioP1;P1;durP2;ratioP2;P2;SDS_P1;SDS_P2;PMS_P1;PMS_P2;Temp;Humidity;BMP_temperature;BMP_pressure;BME280_temperature;BME280_humidity;BME280_pressure;Samples;Min_cycle;Max_cycle;Signal;HPM_P1;HPM_P2
2022/10/24 00:02:08;;;;;;;5.47;2.40;;;15.10;99.90;;;;;;5155359;27;20103;-75
2022/10/24 00:04:35;;;;;;;6.50;2.45;;;15.10;99.90;;;;;;5155356;27;20095;-75
2022/10/24 00:07:02;;;;;;;6.47;2.47;;;15.10;99.90;;;;;;5155259;27;20047;-75
2022/10/24 00:09:27;;;;;;;5.22;2.60;;;15.20;99.90;;;;;;5155254;27;20054;-76
2022/10/24 00:11:53;;;;;;;4.33;2.40;;;15.00;99.90;;;;;;5155340;27;20043;-76
2022/10/24 00:14:18;;;;;;;6.13;2.67;;;14.90;99.90;;;;;;5155184;27;20116;-76
2022/10/24 00:16:44;;;;;;;5.70;2.25;;;15.00;99.90;;;;;;5155109;27;20038;-75
2022/10/24 00:19:10;;;;;;;7.33;1.90;;;14.80;99.90;;;;;;5154025;27;20078;-76
2022/10/24 00:21:35;;;;;;;4.00;1.77;;;14.90;99.90;;;;;;5155185;27;20043;-76
2022/10/24 00:24:01;;;;;;;7.37;2.07;;;15.00;99.90;;;;;;5155032;27;20046;-76
2022/10/24 00:26:27;;;;;;;4.78;2.05;;;14.80;99.90;;;;;;5155118;27;20463;-75
2022/10/24 00:28:52;;;;;;;12.68;1.95;;;14.80;99.90;;;;;;5155145;27;20099;-76
2022/10/24 00:31:19;;;;;;;7.40;1.90;;;14.80;99.90;;;;;;5155140;27;20541;-75
2022/10/24 00:33:45;;;;;;;5.50;2.25;;;15.10;99.90;;;;;;5154991;27;20491;-75
2022/10/24 00:36:13;;;;;;;6.07;1.98;;;14.80;99.90;;;;;;5155137;27;20035;-75
2022/10/24 00:38:39;;;;;;;5.97;2.22;;;14.80;99.90;;;;;;5154979;27;20056;-75
2022/10/24 00:41:04;;;;;;;3.70;1.80;;;14.80;99.90;;;;;;5154900;27;20039;-76
2022/10/24 00:43:30;;;;;;;5.30;2.13;;;14.70;99.90;;;;;;5154977;27;20043;-76
2022/10/24 00:45:58;;;;;;;3.57;2.10;;;14.70;99.90;;;;;;5154827;27;20049;-76
2022/10/24 00:48:34;;;;;;;4.80;2.35;;;14.70;99.90;;;;;;5154896;27;20038;-75
2022/10/24 00:51:05;;;;;;;7.88;2.65;;;14.60;99.90;;;;;;5155404;27;20147;-75
2022/10/24 00:53:34;;;;;;;6.65;2.03;;;14.60;99.90;;;;;;5158479;27;20054;-75
2022/10/24 00:56:01;;;;;;;6.60;2.53;;;14.60;99.90;;;;;;5158820;27;20455;-76
2022/10/24 00:58:29;;;;;;;7.43;2.20;;;14.60;99.90;;;;;;5157800;27;20438;-76
2022/10/24 01:00:55;;;;;;;6.40;2.42;;;14.50;99.90;;;;;;5158634;27;20123;-75
2022/10/24 01:03:21;;;;;;;5.60;2.33;;;14.50;99.90;;;;;;5159380;27;20082;-75
2022/10/24 01:06:04;;;;;;;7.85;2.58;;;14.50;99.90;;;;;;5158309;27;20118;-76
2022/10/24 01:09:08;;;;;;;4.15;2.25;;;14.50;99.90;;;;;;5158657;27;20478;-75
2022/10/24 01:11:42;;;;;;;4.50;2.17;;;14.60;99.90;;;;;;5112218;27;20130;-76
2022/10/24 01:14:12;;;;;;;5.28;2.33;;;14.70;99.90;;;;;;5158233;27;20478;-74
2022/10/24 01:17:01;;;;;;;8.82;2.53;;;14.80;99.90;;;;;;5158647;27;20432;-76
2022/10/24 01:19:47;;;;;;;10.80;2.35;;;14.80;99.90;;;;;;5158459;27;20039;-74
2022/10/24 01:22:20;;;;;;;9.23;2.50;;;14.80;99.90;;;;;;5158352;27;20050;-76
2022/10/24 01:25:21;;;;;;;7.70;2.70;;;14.80;99.90;;;;;;5158533;27;20046;-76
2022/10/24 01:28:22;;;;;;;12.45;3.05;;;14.90;99.90;;;;;;5154401;27;20054;-75
2022/10/24 01:30:52;;;;;;;12.50;2.75;;;15.00;99.90;;;;;;5144067;27;20401;-75
2022/10/24 01:33:44;;;;;;;6.30;2.80;;;15.00;99.90;;;;;;5158392;27;20050;-76
2022/10/24 01:36:17;;;;;;;3.63;2.42;;;15.10;99.90;;;;;;5157578;27;20054;-75
2022/10/24 01:39:04;;;;;;;7.10;2.78;;;15.10;99.90;;;;;;5157778;27;20050;-77
2022/10/24 01:41:32;;;;;;;8.48;3.40;;;15.10;99.90;;;;;;5157950;27;20414;-75
2022/10/24 01:44:19;;;;;;;6.32;2.72;;;15.00;99.90;;;;;;5157766;27;20095;-75
2022/10/24 01:46:57;;;;;;;6.55;2.85;;;15.00;99.90;;;;;;5157759;27;20043;-75
2022/10/24 01:49:26;;;;;;;;;;;14.90;99.90;;;;;;5158136;27;20051;-76
2022/10/24 01:51:54;;;;;;;7.32;2.80;;;14.80;99.90;;;;;;5157649;27;19926;-75
2022/10/24 01:54:20;;;;;;;7.97;3.00;;;14.80;99.90;;;;;;5157533;27;20125;-75
2022/10/24 01:56:46;;;;;;;9.13;3.07;;;14.70;99.90;;;;;;5157509;27;20126;-76
2022/10/24 01:59:27;;;;;;;5.40;2.63;;;14.70;99.90;;;;;;5157509;27;20039;-76
2022/10/24 02:02:13;;;;;;;8.45;2.97;;;14.60;99.90;;;;;;5157848;27;20047;-75
2022/10/24 02:04:45;;;;;;;6.80;2.83;;;14.60;99.90;;;;;;5156298;27;20146;-75
2022/10/24 02:07:12;;;;;;;11.45;2.90;;;14.80;99.90;;;;;;5157334;27;20034;-76
2022/10/24 02:09:41;;;;;;;10.10;3.08;;;14.50;99.90;;;;;;5157258;27;20055;-75
2022/10/24 02:12:09;;;;;;;9.15;3.08;;;14.50;99.90;;;;;;5157189;27;20078;-76
2022/10/24 02:14:49;;;;;;;5.65;2.97;;;14.40;99.90;;;;;;5157173;27;20046;-76
2022/10/24 02:17:15;;;;;;;7.95;2.95;;;14.40;99.90;;;;;;5157644;27;20087;-75
2022/10/24 02:19:42;;;;;;;6.88;3.25;;;14.40;99.90;;;;;;5157216;27;20058;-75
2022/10/24 02:22:28;;;;;;;8.43;2.88;;;14.40;99.90;;;;;;5157147;27;20089;-76
2022/10/24 02:25:07;;;;;;;8.70;3.00;;;14.50;99.90;;;;;;5142567;27;20415;-75
2022/10/24 02:27:58;;;;;;;5.57;3.22;;;14.30;99.90;;;;;;5157096;27;20057;-76
2022/10/24 02:30:26;;;;;;;10.90;3.30;;;14.30;99.90;;;;;;5157098;27;20046;-75
2022/10/24 02:32:56;;;;;;;9.70;2.88;;;14.30;99.90;;;;;;5156945;27;20071;-76
2022/10/24 02:35:26;;;;;;;5.43;3.00;;;14.20;99.90;;;;;;5157111;27;20121;-77
2022/10/24 02:37:58;;;;;;;10.45;2.80;;;14.20;99.90;;;;;;5156880;27;20086;-76
2022/10/24 02:40:24;;;;;;;7.40;2.90;;;14.20;99.90;;;;;;5157084;27;20121;-76
2022/10/24 02:42:53;;;;;;;8.53;3.03;;;14.20;99.90;;;;;;5156704;27;20565;-76
2022/10/24 02:45:21;;;;;;;5.72;2.92;;;14.20;99.90;;;;;;5156637;27;20083;-75
2022/10/24 02:47:49;;;;;;;6.53;2.60;;;14.10;99.90;;;;;;5156497;27;20043;-77
2022/10/24 02:50:15;;;;;;;5.68;2.72;;;14.20;99.90;;;;;;5156989;27;20082;-76
2022/10/24 02:52:42;;;;;;;7.00;3.20;;;14.10;99.90;;;;;;5156504;27;20070;-77
2022/10/24 02:55:10;;;;;;;6.68;2.67;;;14.10;99.90;;;;;;5156638;27;20438;-75
2022/10/24 02:57:36;;;;;;;8.32;3.17;;;14.10;99.90;;;;;;5156593;27;20554;-76
2022/10/24 03:00:02;;;;;;;7.33;2.87;;;14.20;99.90;;;;;;5156348;27;20074;-77
2022/10/24 03:02:27;;;;;;;11.80;3.07;;;14.10;99.90;;;;;;5156806;27;20053;-75
2022/10/24 03:04:53;;;;;;;10.23;3.25;;;14.10;99.90;;;;;;5156284;27;20708;-77
2022/10/24 03:07:19;;;;;;;9.77;3.27;;;14.10;99.90;;;;;;5156176;27;20039;-77
2022/10/24 03:09:44;;;;;;;10.17;3.17;;;14.10;99.90;;;;;;5156181;27;20078;-77
2022/10/24 03:12:15;;;;;;;6.63;3.35;;;14.00;99.90;;;;;;5155978;27;20042;-77
2022/10/24 03:14:40;;;;;;;8.20;3.08;;;14.10;99.90;;;;;;5156041;27;20047;-76
2022/10/24 03:17:06;;;;;;;6.00;2.77;;;14.00;99.90;;;;;;5156097;27;20041;-77
2022/10/24 03:19:31;;;;;;;8.80;3.05;;;14.00;99.90;;;;;;5156078;27;20074;-77
2022/10/24 03:21:57;;;;;;;12.20;3.38;;;14.00;99.90;;;;;;5155046;27;20046;-77
2022/10/24 03:24:23;;;;;;;4.55;2.55;;;14.00;99.90;;;;;;5155900;27;20051;-76
2022/10/24 03:26:51;;;;;;;10.30;3.03;;;14.00;99.90;;;;;;5155845;27;20038;-76
2022/10/24 03:29:19;;;;;;;12.68;3.35;;;14.00;99.90;;;;;;5155803;27;20061;-76
2022/10/24 03:31:45;;;;;;;7.70;3.22;;;14.00;99.90;;;;;;5155371;27;20142;-77
2022/10/24 03:34:10;;;;;;;12.80;3.37;;;14.10;99.90;;;;;;5155766;27;20059;-76
2022/10/24 03:36:36;;;;;;;7.72;2.88;;;14.10;99.90;;;;;;5155694;27;20042;-76
2022/10/24 03:39:02;;;;;;;12.27;3.33;;;14.20;99.90;;;;;;5155550;27;20497;-76
2022/10/24 03:41:27;;;;;;;10.77;3.50;;;14.20;99.90;;;;;;5155673;27;20200;-76
2022/10/24 03:43:53;;;;;;;10.07;3.17;;;14.50;99.90;;;;;;5155636;27;20050;-76
2022/10/24 03:46:18;;;;;;;11.17;2.87;;;14.30;99.90;;;;;;5155332;27;20474;-77
2022/10/24 03:48:44;;;;;;;7.17;2.20;;;14.40;99.90;;;;;;5155939;27;20041;-77
2022/10/24 03:51:10;;;;;;;7.97;2.90;;;14.50;99.90;;;;;;5155486;27;20047;-76
2022/10/24 03:53:35;;;;;;;4.93;2.53;;;14.60;99.90;;;;;;5155490;27;20031;-76
2022/10/24 03:56:01;;;;;;;6.30;2.10;;;14.60;99.90;;;;;;5154143;27;20495;-77
2022/10/24 03:58:27;;;;;;;5.87;2.77;;;14.90;99.90;;;;;;5155187;27;20039;-77
2022/10/24 04:00:54;;;;;;;6.13;2.70;;;14.80;99.90;;;;;;5155437;27;20078;-77
2022/10/24 04:03:19;;;;;;;;;;;14.90;99.90;;;;;;5155858;27;20375;-77
2022/10/24 04:05:45;;;;;;;7.28;2.20;;;14.80;99.90;;;;;;5155312;27;20022;-76
2022/10/24 04:08:11;;;;;;;6.93;2.30;;;14.90;99.90;;;;;;5155168;27;20031;-75
2022/10/24 04:10:36;;;;;;;8.38;1.80;;;14.90;99.90;;;;;;5155193;27;20047;-77
2022/10/24 04:13:02;;;;;;;11.15;2.22;;;14.90;99.90;;;;;;5155203;27;20057;-78
2022/10/24 04:15:28;;;;;;;4.93;2.40;;;15.00;99.90;;;;;;5155058;27;20521;-77
2022/10/24 04:17:53;;;;;;;6.47;2.53;;;15.00;99.90;;;;;;5155149;27;20355;-77
2022/10/24 04:20:21;;;;;;;7.63;1.95;;;15.00;99.90;;;;;;5155032;27;20048;-75
2022/10/24 04:22:46;;;;;;;7.38;2.40;;;15.00;99.90;;;;;;5154013;27;20086;-78
2022/10/24 04:25:12;;;;;;;7.47;2.57;;;15.00;99.90;;;;;;5155002;27;20054;-77
2022/10/24 04:27:39;;;;;;;9.33;2.27;;;15.00;99.90;;;;;;5157160;27;20118;-77
2022/10/24 04:30:09;;;;;;;7.68;2.20;;;14.90;99.90;;;;;;5159174;27;20046;-77
2022/10/24 04:32:34;;;;;;;7.63;2.50;;;14.90;99.90;;;;;;5159679;27;20402;-77
2022/10/24 04:35:00;;;;;;;10.13;2.20;;;15.00;99.90;;;;;;5159091;27;20053;-77
2022/10/24 04:37:26;;;;;;;6.95;2.20;;;14.90;99.90;;;;;;5159212;27;20043;-77
2022/10/24 04:39:53;;;;;;;6.43;2.00;;;14.90;99.90;;;;;;5159117;27;20046;-76
2022/10/24 04:42:19;;;;;;;;;;;15.10;99.90;;;;;;5159255;27;20501;-76
2022/10/24 04:44:45;;;;;;;6.65;2.10;;;14.80;99.90;;;;;;5158986;27;20013;-78
2022/10/24 04:47:10;;;;;;;3.40;2.00;;;14.80;99.90;;;;;;5158860;27;20126;-75
2022/10/24 04:49:36;;;;;;;3.88;2.25;;;14.70;99.90;;;;;;5158857;27;20114;-76
2022/10/24 04:52:02;;;;;;;6.07;2.33;;;14.70;99.90;;;;;;5159360;27;20118;-76
2022/10/24 04:54:27;;;;;;;8.48;2.38;;;14.60;99.90;;;;;;5158559;27;20042;-76
2022/10/24 04:56:53;;;;;;;5.43;1.90;;;14.60;99.90;;;;;;5158847;27;20045;-77
2022/10/24 04:59:18;;;;;;;5.03;1.90;;;14.60;99.90;;;;;;5158752;27;20531;-76
2022/10/24 05:01:44;;;;;;;7.67;2.20;;;14.70;99.90;;;;;;5158709;27;20049;-76
2022/10/24 05:04:09;;;;;;;5.45;2.00;;;14.60;99.90;;;;;;5158759;27;20042;-77
2022/10/24 05:06:35;;;;;;;4.07;1.88;;;14.60;99.90;;;;;;5158670;27;20047;-76
2022/10/24 05:09:00;;;;;;;9.90;2.15;;;14.60;99.90;;;;;;5158815;27;20051;-76
2022/10/24 05:11:26;;;;;;;6.13;2.08;;;14.60;99.90;;;;;;5158612;27;20116;-77
2022/10/24 05:13:52;;;;;;;12.50;2.10;;;14.60;99.90;;;;;;5158496;27;20038;-76
2022/10/24 05:16:17;;;;;;;9.17;2.20;;;14.60;99.90;;;;;;5158980;27;20038;-76
2022/10/24 05:18:43;;;;;;;8.43;2.20;;;14.60;99.90;;;;;;5158170;27;20038;-77
2022/10/24 05:21:08;;;;;;;7.60;2.17;;;14.50;99.90;;;;;;5158345;27;20103;-75
2022/10/24 05:23:34;;;;;;;6.93;2.00;;;14.50;99.90;;;;;;5158362;27;20030;-76
2022/10/24 05:25:59;;;;;;;5.77;2.20;;;14.40;99.90;;;;;;5158427;27;20046;-76
2022/10/24 05:28:25;;;;;;;7.77;2.07;;;14.40;99.90;;;;;;5158210;27;20092;-77
2022/10/24 05:30:51;;;;;;;5.70;2.17;;;14.40;99.90;;;;;;5157844;27;20089;-77
2022/10/24 05:33:16;;;;;;;4.10;2.20;;;14.40;99.90;;;;;;5158139;27;20046;-76
2022/10/24 05:35:42;;;;;;;6.18;2.05;;;14.30;99.90;;;;;;5158078;27;20074;-77
2022/10/24 05:38:08;;;;;;;5.63;1.85;;;14.30;99.90;;;;;;5155707;27;20030;-76
2022/10/24 05:40:33;;;;;;;7.35;2.33;;;14.30;99.90;;;;;;5157665;27;20039;-77
2022/10/24 05:42:59;;;;;;;6.97;2.40;;;14.30;99.90;;;;;;5158007;27;20049;-79
2022/10/24 05:45:24;;;;;;;6.97;2.20;;;14.30;99.90;;;;;;5156659;27;20050;-78
2022/10/24 05:47:50;;;;;;;5.83;1.87;;;14.30;99.90;;;;;;5157755;27;20042;-78
2022/10/24 05:50:15;;;;;;;6.25;2.03;;;14.30;99.90;;;;;;5157788;27;20046;-77
2022/10/24 05:52:41;;;;;;;5.65;2.00;;;14.20;99.90;;;;;;5157601;27;20050;-76
2022/10/24 05:55:08;;;;;;;6.90;1.90;;;14.30;99.90;;;;;;5158079;27;20085;-78
2022/10/24 05:57:34;;;;;;;7.53;1.77;;;14.20;99.90;;;;;;5158280;27;20478;-75
2022/10/24 06:00:00;;;;;;;5.28;1.90;;;14.30;99.90;;;;;;5158322;27;20079;-77
2022/10/24 06:02:26;;;;;;;3.33;1.70;;;14.30;99.90;;;;;;5158237;27;20046;-77
2022/10/24 06:04:53;;;;;;;6.95;2.00;;;14.30;99.90;;;;;;5157959;27;20394;-75
2022/10/24 06:07:19;;;;;;;3.53;2.10;;;14.40;99.90;;;;;;5157662;27;20043;-77
2022/10/24 06:09:45;;;;;;;4.37;2.00;;;14.40;99.90;;;;;;5157779;27;20045;-75
2022/10/24 06:12:11;;;;;;;4.40;2.13;;;14.40;99.90;;;;;;5157291;27;20050;-76
2022/10/24 06:14:38;;;;;;;5.85;2.00;;;14.40;99.90;;;;;;5157160;27;20035;-80
2022/10/24 06:17:05;;;;;;;5.13;2.05;;;14.60;99.90;;;;;;5157946;27;20121;-78
2022/10/24 06:19:31;;;;;;;6.95;1.92;;;14.50;99.90;;;;;;5156875;27;20493;-79
2022/10/24 06:21:57;;;;;;;10.60;2.42;;;14.50;99.90;;;;;;5157083;27;20085;-77
2022/10/24 06:24:22;;;;;;;4.27;1.90;;;14.50;99.90;;;;;;5156891;27;20086;-82
2022/10/24 06:26:48;;;;;;;4.53;1.98;;;14.50;99.90;;;;;;5157189;27;20053;-77
2022/10/24 06:29:13;;;;;;;8.57;2.45;;;14.60;99.90;;;;;;5156944;27;20043;-77
2022/10/24 06:31:39;;;;;;;9.17;2.10;;;14.60;99.90;;;;;;5157025;27;20050;-77
2022/10/24 06:34:04;;;;;;;3.78;2.10;;;14.70;99.90;;;;;;5156998;27;20039;-75
2022/10/24 06:36:30;;;;;;;6.65;2.13;;;14.70;99.90;;;;;;5156813;27;20039;-75
2022/10/24 06:38:56;;;;;;;6.85;1.92;;;14.70;99.90;;;;;;5156851;27;20087;-77
2022/10/24 06:41:22;;;;;;;6.57;2.30;;;14.70;99.90;;;;;;5156884;27;20042;-78
2022/10/24 06:43:48;;;;;;;6.10;2.23;;;14.70;99.90;;;;;;5156699;27;20035;-77
2022/10/24 06:46:15;;;;;;;6.20;1.90;;;14.90;99.90;;;;;;5157076;27;20479;-76
2022/10/24 06:48:42;;;;;;;8.82;1.88;;;14.70;99.90;;;;;;5156568;27;20054;-77
2022/10/24 06:51:08;;;;;;;9.00;2.05;;;14.70;99.90;;;;;;5156454;27;20039;-76
2022/10/24 06:53:33;;;;;;;5.97;1.90;;;14.70;99.90;;;;;;5156258;27;20043;-76
2022/10/24 06:56:03;;;;;;;4.45;1.90;;;14.70;99.90;;;;;;5156510;27;20288;-76
2022/10/24 06:58:33;;;;;;;8.50;2.03;;;14.80;99.90;;;;;;5156354;27;20126;-76
2022/10/24 07:00:59;;;;;;;4.82;2.00;;;14.80;99.90;;;;;;5156326;27;20047;-75
2022/10/24 07:03:25;;;;;;;9.07;2.05;;;14.80;99.90;;;;;;5156343;27;20039;-75
2022/10/24 07:05:50;;;;;;;4.77;1.93;;;14.90;99.90;;;;;;5156119;27;20039;-76
2022/10/24 07:08:16;;;;;;;6.20;1.70;;;14.80;99.90;;;;;;5155810;27;20042;-76
2022/10/24 07:10:41;;;;;;;4.30;2.00;;;14.90;99.90;;;;;;5156034;27;20045;-75
2022/10/24 07:13:07;;;;;;;7.53;1.60;;;14.80;99.90;;;;;;5156014;27;20103;-76
2022/10/24 07:15:33;;;;;;;13.02;2.15;;;14.80;99.90;;;;;;5156211;27;20130;-76
2022/10/24 07:17:58;;;;;;;4.75;2.08;;;14.80;99.90;;;;;;5156530;27;20043;-75
2022/10/24 07:20:24;;;;;;;8.47;2.40;;;14.80;99.90;;;;;;5156022;27;20458;-73
2022/10/24 07:22:49;;;;;;;6.23;2.17;;;14.70;99.90;;;;;;5155862;27;20050;-78
2022/10/24 07:25:15;;;;;;;4.10;2.10;;;14.70;99.90;;;;;;5156070;27;20474;-77
2022/10/24 07:27:41;;;;;;;6.17;2.30;;;14.80;99.90;;;;;;5155859;27;20050;-77
2022/10/24 07:30:14;;;;;;;9.95;2.00;;;14.80;99.90;;;;;;5134931;27;20047;-77
2022/10/24 07:32:40;;;;;;;11.55;2.10;;;14.80;99.90;;;;;;5135688;27;20402;-77
2022/10/24 07:35:06;;;;;;;7.20;2.03;;;14.90;99.90;;;;;;5135390;27;20035;-70
2022/10/24 07:37:31;;;;;;;6.40;1.87;;;14.90;99.90;;;;;;5134773;27;20043;-71
2022/10/24 07:39:57;;;;;;;6.20;2.00;;;15.20;99.90;;;;;;5135000;27;20074;-77
2022/10/24 07:42:22;;;;;;;7.93;1.90;;;15.20;99.90;;;;;;5134759;27;20099;-73
2022/10/24 07:44:48;;;;;;;6.03;2.10;;;15.30;99.90;;;;;;5134836;27;20050;-81
2022/10/24 07:47:13;;;;;;;12.63;1.73;;;15.50;99.90;;;;;;5134306;27;20435;-80
2022/10/24 07:49:39;;;;;;;6.50;1.70;;;15.50;99.90;;;;;;5134691;27;20051;-78
2022/10/24 07:52:05;;;;;;;7.47;2.17;;;15.60;99.90;;;;;;5134827;27;20079;-78
2022/10/24 07:54:30;;;;;;;10.70;2.30;;;15.70;99.90;;;;;;5134670;27;20051;-79
2022/10/24 07:56:56;;;;;;;5.87;1.93;;;15.80;99.90;;;;;;5116440;28;20039;-84
2022/10/24 07:59:21;;;;;;;6.73;1.67;;;15.80;99.90;;;;;;5134405;27;20473;-78
2022/10/24 08:01:47;;;;;;;7.80;1.70;;;15.80;99.90;;;;;;5134372;27;20051;-79
2022/10/24 08:04:12;;;;;;;5.80;1.80;;;15.90;99.90;;;;;;5134729;28;20463;-81
2022/10/24 08:06:41;;;;;;;6.23;1.70;;;15.70;99.90;;;;;;5134548;28;20061;-78
2022/10/24 08:09:07;;;;;;;9.80;1.90;;;15.80;99.90;;;;;;5134717;27;20100;-79
2022/10/24 08:11:33;;;;;;;14.00;2.07;;;15.80;99.90;;;;;;5134554;28;20043;-77
2022/10/24 08:13:58;;;;;;;5.23;1.87;;;15.90;99.90;;;;;;5134573;27;20051;-76
2022/10/24 08:16:24;;;;;;;6.33;1.70;;;15.90;99.90;;;;;;5134333;28;20031;-77
2022/10/24 08:18:52;;;;;;;10.03;2.23;;;16.00;99.90;;;;;;5134469;28;20039;-78
2022/10/24 08:21:20;;;;;;;10.85;2.13;;;16.10;99.90;;;;;;5134556;27;20291;-78
2022/10/24 08:23:47;;;;;;;8.60;1.92;;;16.00;99.90;;;;;;5134311;27;20494;-77
2022/10/24 08:26:16;;;;;;;7.63;1.80;;;16.10;99.90;;;;;;5134520;27;20077;-76
2022/10/24 08:28:42;;;;;;;6.30;1.90;;;16.10;99.90;;;;;;5134452;27;20043;-78
2022/10/24 08:31:13;;;;;;;6.13;1.73;;;16.20;99.90;;;;;;5134452;27;20049;-79
2022/10/24 08:33:39;;;;;;;5.38;1.90;;;16.20;99.90;;;;;;5134487;27;20046;-78
2022/10/24 08:36:31;;;;;;;5.93;1.75;;;16.30;99.90;;;;;;5134862;27;20040;-80
2022/10/24 08:38:57;;;;;;;5.57;2.25;;;16.30;99.90;;;;;;5133596;28;20475;-80
2022/10/24 08:41:29;;;;;;;6.38;1.95;;;16.40;99.90;;;;;;5134016;27;20501;-81
2022/10/24 08:43:57;;;;;;;8.57;2.35;;;16.40;99.90;;;;;;5133215;28;20077;-81
2022/10/24 08:46:37;;;;;;;6.75;2.10;;;16.70;99.90;;;;;;5134161;27;20478;-82
2022/10/24 08:49:21;;;;;;;11.50;2.35;;;16.60;99.90;;;;;;5133115;28;20047;-82
2022/10/24 08:51:56;;;;;;;11.20;2.10;;;16.70;99.90;;;;;;5133434;28;20083;-82
2022/10/24 08:54:28;;;;;;;5.20;1.70;;;16.70;99.90;;;;;;5134313;27;20051;-83
2022/10/24 08:56:56;;;;;;;6.72;1.80;;;16.70;99.90;;;;;;5134112;27;20043;-82
2022/10/24 08:59:23;;;;;;;7.22;2.00;;;16.60;99.90;;;;;;5134293;27;20054;-81
2022/10/24 09:02:20;;;;;;;6.63;1.88;;;16.80;99.90;;;;;;5132894;28;20505;-82
2022/10/24 09:05:01;;;;;;;5.10;2.13;;;16.90;99.90;;;;;;5133762;28;20065;-81
2022/10/24 09:07:27;;;;;;;4.72;1.80;;;17.00;99.90;;;;;;5134145;27;20390;-75
2022/10/24 09:10:12;;;;;;;7.10;1.95;;;17.10;99.90;;;;;;5134062;28;20043;-74
2022/10/24 09:12:38;;;;;;;6.47;2.00;;;17.20;99.90;;;;;;5134841;27;20039;-79
2022/10/24 09:15:22;;;;;;;11.13;2.40;;;17.30;99.90;;;;;;5137387;27;20043;-81
2022/10/24 09:17:48;;;;;;;6.07;1.83;;;17.30;99.90;;;;;;5137769;27;20080;-83
2022/10/24 09:20:24;;;;;;;5.88;1.70;;;17.30;99.90;;;;;;5137635;27;20054;-80
2022/10/24 09:22:51;;;;;;;10.10;1.98;;;17.20;99.90;;;;;;5137532;27;20047;-80
2022/10/24 09:25:21;;;;;;;8.70;1.92;;;17.00;99.90;;;;;;5137823;27;20061;-81
2022/10/24 09:27:48;;;;;;;5.80;1.95;;;17.00;99.90;;;;;;5137883;27;20058;-80
2022/10/24 09:30:24;;;;;;;8.98;1.95;;;17.40;99.90;;;;;;5137527;27;20047;-81
2022/10/24 09:32:51;;;;;;;8.05;1.95;;;17.30;99.90;;;;;;5137382;27;20035;-80
2022/10/24 09:35:24;;;;;;;7.85;1.70;;;17.30;99.90;;;;;;5137371;27;20043;-81
2022/10/24 09:37:55;;;;;;;6.15;1.95;;;17.20;99.90;;;;;;5137475;27;20062;-81
2022/10/24 09:40:22;;;;;;;12.30;2.03;;;17.10;99.90;;;;;;5136978;27;20483;-82
2022/10/24 09:43:08;;;;;;;5.82;1.67;;;17.20;99.90;;;;;;5136470;27;20139;-81
2022/10/24 09:46:01;;;;;;;5.88;1.80;;;17.20;99.90;;;;;;5122081;27;20051;-79
2022/10/24 09:48:55;;;;;;;6.47;1.88;;;17.20;99.90;;;;;;5128246;27;20047;-78
2022/10/24 09:51:26;;;;;;;5.82;1.52;;;17.20;99.90;;;;;;5137100;27;20070;-79
2022/10/24 09:54:04;;;;;;;9.98;2.13;;;17.20;99.90;;;;;;5137078;27;20191;-76
2022/10/24 09:56:39;;;;;;;5.00;1.63;;;17.20;99.90;;;;;;5136733;27;20062;-81
2022/10/24 09:59:28;;;;;;;13.90;2.40;;;17.10;99.90;;;;;;5136891;27;20084;-81
2022/10/24 10:02:09;;;;;;;7.22;1.70;;;17.10;99.90;;;;;;5137030;27;20039;-81
2022/10/24 10:04:43;;;;;;;12.68;1.95;;;17.10;99.90;;;;;;5137112;27;20050;-84
2022/10/24 10:07:17;;;;;;;7.30;2.05;;;17.10;99.90;;;;;;5110173;27;20039;-79
2022/10/24 10:09:55;;;;;;;6.15;2.30;;;17.10;99.90;;;;;;5136627;27;20092;-79
2022/10/24 10:12:35;;;;;;;7.50;1.70;;;17.00;99.90;;;;;;5136640;27;20083;-77
2022/10/24 10:15:34;;;;;;;5.45;1.75;;;17.00;99.90;;;;;;5136583;27;20082;-78
2022/10/24 10:18:20;;;;;;;9.48;2.00;;;17.00;99.90;;;;;;5136417;27;20036;-79
2022/10/24 10:21:02;;;;;;;6.63;1.90;;;16.90;99.90;;;;;;5136538;27;20035;-78
2022/10/24 10:23:32;;;;;;;7.97;1.80;;;16.80;99.90;;;;;;5135422;27;20043;-81
2022/10/24 10:26:22;;;;;;;6.53;2.03;;;16.70;99.90;;;;;;5117037;27;20059;-82
2022/10/24 10:29:16;;;;;;;3.75;1.42;;;16.60;99.90;;;;;;5136237;27;20051;-80
2022/10/24 10:31:55;;;;;;;9.88;2.25;;;16.50;99.90;;;;;;5134697;27;20042;-80
2022/10/24 10:34:27;;;;;;;7.40;1.88;;;16.50;99.90;;;;;;5136158;27;20574;-79
2022/10/24 10:37:13;;;;;;;6.82;1.88;;;16.40;99.90;;;;;;5136196;27;20078;-80
2022/10/24 10:39:55;;;;;;;5.63;1.60;;;16.20;99.90;;;;;;5136083;27;20051;-81
2022/10/24 10:42:52;;;;;;;5.18;1.80;;;16.10;99.90;;;;;;5136038;27;20043;-80
2022/10/24 10:45:40;;;;;;;6.57;1.60;;;16.00;99.90;;;;;;5136010;27;20054;-80
2022/10/24 10:48:44;;;;;;;7.03;1.92;;;15.70;99.90;;;;;;5135997;27;20035;-79
2022/10/24 10:51:35;;;;;;;8.85;1.90;;;15.70;99.90;;;;;;5133764;27;20069;-85
2022/10/24 10:54:24;;;;;;;6.13;2.00;;;15.70;99.90;;;;;;5135953;27;20494;-81
2022/10/24 10:57:06;;;;;;;4.95;1.75;;;15.60;99.90;;;;;;5135479;27;20061;-78
2022/10/24 10:59:56;;;;;;;4.82;1.73;;;15.60;99.90;;;;;;5135486;27;20046;-81
2022/10/24 11:02:37;;;;;;;5.05;1.67;;;15.80;99.90;;;;;;5135737;27;20100;-81
2022/10/24 11:05:39;;;;;;;5.20;1.77;;;15.90;99.90;;;;;;5135604;27;20047;-79
2022/10/24 11:08:24;;;;;;;7.70;1.70;;;16.10;99.90;;;;;;5135441;27;20035;-80
2022/10/24 11:11:05;;;;;;;5.05;1.70;;;16.30;99.90;;;;;;5134904;27;20072;-82
2022/10/24 11:13:55;;;;;;;8.55;1.70;;;16.40;99.90;;;;;;5123520;27;20039;-83
2022/10/24 11:16:25;;;;;;;7.30;1.70;;;16.60;99.90;;;;;;5120744;27;20048;-82
2022/10/24 11:18:54;;;;;;;5.57;1.95;;;16.60;99.90;;;;;;5129943;27;20039;-81
2022/10/24 11:21:24;;;;;;;8.10;1.88;;;16.70;99.90;;;;;;5135298;27;20043;-82
2022/10/24 11:23:56;;;;;;;6.07;1.88;;;16.60;99.90;;;;;;5135257;27;20095;-82
2022/10/24 11:26:43;;;;;;;8.63;2.22;;;16.60;99.90;;;;;;5136126;27;20066;-81
2022/10/24 11:29:29;;;;;;;6.13;1.52;;;16.70;99.90;;;;;;5135366;27;20076;-81
2022/10/24 11:32:16;;;;;;;5.70;1.70;;;16.90;99.90;;;;;;5135071;27;20050;-84
2022/10/24 11:34:49;;;;;;;5.97;1.80;;;17.00;99.90;;;;;;5135689;27;20066;-84
2022/10/24 11:37:26;;;;;;;5.20;1.90;;;17.10;99.90;;;;;;5135201;27;20497;-83
2022/10/24 11:40:11;;;;;;;;;;;17.10;99.90;;;;;;5135642;27;20055;-81
2022/10/24 11:43:12;;;;;;;6.72;1.90;;;17.10;99.90;;;;;;5134963;27;19975;-81
2022/10/24 11:45:52;;;;;;;6.50;1.67;;;17.40;99.90;;;;;;5134960;27;20089;-81
2022/10/24 11:48:36;;;;;;;5.35;1.95;;;17.50;99.90;;;;;;5134792;27;20047;-81
2022/10/24 11:51:26;;;;;;;6.70;2.05;;;17.70;99.90;;;;;;5134907;27;20043;-81
2022/10/24 11:54:02;;;;;;;5.57;2.00;;;17.60;99.90;;;;;;5135099;27;20053;-81
2022/10/24 11:56:53;;;;;;;5.35;1.70;;;17.50;99.90;;;;;;5134897;27;20051;-82
2022/10/24 11:59:23;;;;;;;5.40;1.70;;;17.50;99.90;;;;;;5134003;27;20043;-79
2022/10/24 12:01:54;;;;;;;5.25;1.50;;;17.40;99.90;;;;;;5134677;27;20104;-77
2022/10/24 12:04:38;;;;;;;7.40;1.83;;;17.30;99.90;;;;;;5134671;27;20089;-78
2022/10/24 12:07:41;;;;;;;5.30;1.75;;;17.20;99.90;;;;;;5134883;28;20046;-79
2022/10/24 12:10:28;;;;;;;6.13;1.70;;;17.10;99.90;;;;;;5134392;28;20086;-79
2022/10/24 12:13:24;;;;;;;5.45;1.60;;;17.20;99.90;;;;;;5133731;27;20118;-81
2022/10/24 12:16:46;;;;;;;3.95;1.50;;;17.10;99.90;;;;;;5125896;28;20054;-80
2022/10/24 12:19:18;;;;;;;5.85;1.95;;;17.00;99.90;;;;;;5093511;27;20047;-79
2022/10/24 12:21:52;;;;;;;7.93;2.17;;;17.00;99.90;;;;;;5113968;28;20048;-79
2022/10/24 12:24:23;;;;;;;4.68;2.00;;;17.00;99.90;;;;;;5113847;28;20108;-79
2022/10/24 12:27:34;;;;;;;5.78;1.80;;;17.00;99.90;;;;;;5113718;28;20058;-78
2022/10/24 12:30:15;;;;;;;3.63;1.63;;;17.00;99.90;;;;;;5098474;28;20055;-79
2022/10/24 12:32:51;;;;;;;3.33;1.40;;;17.00;99.90;;;;;;5131031;28;20051;-78
2022/10/24 12:35:34;;;;;;;4.57;1.50;;;17.10;99.90;;;;;;5134276;28;20089;-80
2022/10/24 12:38:02;;;;;;;12.80;2.10;;;17.00;99.90;;;;;;5134208;27;20050;-79
2022/10/24 12:40:50;;;;;;;7.80;1.60;;;17.00;99.90;;;;;;5134017;27;20047;-80
2022/10/24 12:43:26;;;;;;;6.63;1.58;;;17.00;99.90;;;;;;5133519;27;20424;-81
2022/10/24 12:45:53;;;;;;;5.18;1.85;;;16.90;99.90;;;;;;5133029;28;20086;-81
2022/10/24 12:48:34;;;;;;;5.87;1.50;;;17.00;99.90;;;;;;5135674;27;20082;-82
2022/10/24 12:51:23;;;;;;;4.00;1.60;;;16.90;99.90;;;;;;5137536;27;20046;-81
2022/10/24 12:54:04;;;;;;;4.03;1.60;;;16.90;99.90;;;;;;5123337;27;20047;-78
2022/10/24 12:56:32;;;;;;;2.80;1.50;;;16.90;99.90;;;;;;5138203;27;20443;-78
2022/10/24 12:59:24;;;;;;;4.35;1.85;;;16.90;99.90;;;;;;5138133;27;20202;-79
2022/10/24 13:02:13;;;;;;;6.93;1.83;;;17.00;99.90;;;;;;5128645;27;20055;-77
2022/10/24 13:04:45;;;;;;;7.50;1.77;;;17.10;99.90;;;;;;5137893;27;20035;-78
2022/10/24 13:07:40;;;;;;;4.80;1.55;;;17.00;99.90;;;;;;5137829;27;20099;-78
2022/10/24 13:10:17;;;;;;;4.57;1.50;;;17.10;99.90;;;;;;5137904;27;20495;-78
2022/10/24 13:13:20;;;;;;;2.22;1.40;;;17.10;99.90;;;;;;5137886;27;20043;-83